sensor_id;sensor_type;location;lat;lon;timestamp;P1;durP1;ratioP1;P2;durP2;ratioP2
34136;SDS011;20414;50.860;4.382;2023-01-26T00:01:28;9.02;;;6.43;;
34136;SDS011;20414;50.860;4.382;2023-01-26T00:03:54;9.65;;;6.72;;
34136;SDS011;20414;50.860;4.382;2023-01-26T00:06:21;10.20;;;6.78;;
34136;SDS011;20414;50.860;4.382;2023-01-26T00:08:48;9.23;;;6.38;;
34136;SDS011;20414;50.860;4.382;2023-01-26T00:11:16;8.50;;;6.28;;
34136;SDS011;20414;50.860;4.382;2023-01-26T00:13:51;9.73;;;6.72;;
34136;SDS011;20414;50.860;4.382;2023-01-26T00:16:17;9.77;;;6.90;;
34136;SDS011;20414;50.860;4.382;2023-01-26T00:18:43;9.90;;;7.13;;
34136;SDS011;20414;50.860;4.382;2023-01-26T00:21:11;9.07;;;6.82;;
34136;SDS011;20414;50.860;4.382;2023-01-26T00:23:40;10.10;;;6.80;;
34136;SDS011;20414;50.860;4.382;2023-01-26T00:26:06;9.85;;;6.90;;
34136;SDS011;20414;50.860;4.382;2023-01-26T00:28:34;8.70;;;6.40;;
34136;SDS011;20414;50.860;4.382;2023-01-26T00:31:03;9.88;;;6.95;;
34136;SDS011;20414;50.860;4.382;2023-01-26T00:33:29;8.65;;;6.50;;
34136;SDS011;20414;50.860;4.382;2023-01-26T00:35:55;8.30;;;6.40;;
34136;SDS011;20414;50.860;4.382;2023-01-26T00:38:21;10.45;;;7.07;;
34136;SDS011;20414;50.860;4.382;2023-01-26T00:40:46;9.38;;;6.20;;
34136;SDS011;20414;50.860;4.382;2023-01-26T00:43:12;8.98;;;6.55;;
34136;SDS011;20414;50.860;4.382;2023-01-26T00:45:38;8.93;;;6.60;;
34136;SDS011;20414;50.860;4.382;2023-01-26T00:48:03;9.98;;;6.95;;
34136;SDS011;20414;50.860;4.382;2023-01-26T00:50:29;9.93;;;6.70;;
34136;SDS011;20414;50.860;4.382;2023-01-26T00:52:55;9.55;;;6.68;;
34136;SDS011;20414;50.860;4.382;2023-01-26T00:55:21;9.20;;;6.43;;
34136;SDS011;20414;50.860;4.382;2023-01-26T00:57:47;8.98;;;6.28;;
34136;SDS011;20414;50.860;4.382;2023-01-26T01:00:14;8.38;;;6.60;;
34136;SDS011;20414;50.860;4.382;2023-01-26T01:02:44;9.43;;;6.20;;
34136;SDS011;20414;50.860;4.382;2023-01-26T01:05:09;8.73;;;6.43;;
34136;SDS011;20414;50.860;4.382;2023-01-26T01:07:35;10.32;;;6.75;;
34136;SDS011;20414;50.860;4.382;2023-01-26T01:10:02;9.80;;;6.35;;
34136;SDS011;20414;50.860;4.382;2023-01-26T01:12:29;8.43;;;6.35;;
34136;SDS011;20414;50.860;4.382;2023-01-26T01:14:55;8.60;;;6.35;;
34136;SDS011;20414;50.860;4.382;2023-01-26T01:17:20;9.48;;;6.40;;
34136;SDS011;20414;50.860;4.382;2023-01-26T01:19:46;9.27;;;6.28;;
34136;SDS011;20414;50.860;4.382;2023-01-26T01:22:12;8.23;;;5.80;;
34136;SDS011;20414;50.860;4.382;2023-01-26T01:24:37;8.18;;;6.00;;
34136;SDS011;20414;50.860;4.382;2023-01-26T01:27:03;8.30;;;6.13;;
34136;SDS011;20414;50.860;4.382;2023-01-26T01:29:28;10.32;;;6.45;;
34136;SDS011;20414;50.860;4.382;2023-01-26T01:31:55;9.25;;;6.38;;
34136;SDS011;20414;50.860;4.382;2023-01-26T01:34:21;9.63;;;6.70;;
34136;SDS011;20414;50.860;4.382;2023-01-26T01:36:46;9.07;;;6.55;;
34136;SDS011;20414;50.860;4.382;2023-01-26T01:39:12;8.63;;;6.30;;
34136;SDS011;20414;50.860;4.382;2023-01-26T01:41:38;8.63;;;5.88;;
34136;SDS011;20414;50.860;4.382;2023-01-26T01:44:13;9.85;;;6.63;;
34136;SDS011;20414;50.860;4.382;2023-01-26T01:46:52;8.77;;;6.20;;
34136;SDS011;20414;50.860;4.382;2023-01-26T01:51:56;7.82;;;5.60;;
34136;SDS011;20414;50.860;4.382;2023-01-26T01:57:25;9.25;;;6.20;;
34136;SDS011;20414;50.860;4.382;2023-01-26T02:00:06;9.40;;;6.47;;
34136;SDS011;20414;50.860;4.382;2023-01-26T02:02:33;9.35;;;6.00;;
34136;SDS011;20414;50.860;4.382;2023-01-26T02:05:01;8.98;;;5.95;;
34136;SDS011;20414;50.860;4.382;2023-01-26T02:07:34;8.85;;;5.85;;
34136;SDS011;20414;50.860;4.382;2023-01-26T02:10:03;9.68;;;6.63;;
34136;SDS011;20414;50.860;4.382;2023-01-26T02:12:45;8.98;;;5.85;;
34136;SDS011;20414;50.860;4.382;2023-01-26T02:15:14;9.00;;;6.50;;
34136;SDS011;20414;50.860;4.382;2023-01-26T02:17:39;8.77;;;5.97;;
34136;SDS011;20414;50.860;4.382;2023-01-26T02:20:16;10.43;;;6.78;;
34136;SDS011;20414;50.860;4.382;2023-01-26T02:22:50;8.45;;;5.80;;
34136;SDS011;20414;50.860;4.382;2023-01-26T02:25:36;9.32;;;5.88;;
34136;SDS011;20414;50.860;4.382;2023-01-26T02:28:05;8.65;;;5.80;;
34136;SDS011;20414;50.860;4.382;2023-01-26T02:30:31;9.20;;;6.50;;
34136;SDS011;20414;50.860;4.382;2023-01-26T02:32:57;9.43;;;6.35;;
34136;SDS011;20414;50.860;4.382;2023-01-26T02:35:23;8.60;;;6.30;;
34136;SDS011;20414;50.860;4.382;2023-01-26T02:37:48;10.25;;;6.70;;
34136;SDS011;20414;50.860;4.382;2023-01-26T02:42:58;8.63;;;6.10;;
34136;SDS011;20414;50.860;4.382;2023-01-26T02:45:26;9.20;;;6.10;;
34136;SDS011;20414;50.860;4.382;2023-01-26T02:47:53;9.73;;;6.15;;
34136;SDS011;20414;50.860;4.382;2023-01-26T02:50:19;9.65;;;6.45;;
34136;SDS011;20414;50.860;4.382;2023-01-26T02:52:45;8.82;;;6.13;;
34136;SDS011;20414;50.860;4.382;2023-01-26T02:55:11;9.05;;;6.13;;
34136;SDS011;20414;50.860;4.382;2023-01-26T02:57:54;8.30;;;6.00;;
34136;SDS011;20414;50.860;4.382;2023-01-26T03:00:21;10.38;;;6.60;;
34136;SDS011;20414;50.860;4.382;2023-01-26T03:02:48;8.35;;;6.03;;
34136;SDS011;20414;50.860;4.382;2023-01-26T03:05:16;10.05;;;6.55;;
34136;SDS011;20414;50.860;4.382;2023-01-26T03:07:42;8.52;;;6.10;;
34136;SDS011;20414;50.860;4.382;2023-01-26T03:10:08;9.05;;;6.07;;
34136;SDS011;20414;50.860;4.382;2023-01-26T03:12:35;9.65;;;6.10;;
34136;SDS011;20414;50.860;4.382;2023-01-26T03:15:01;8.88;;;6.18;;
34136;SDS011;20414;50.860;4.382;2023-01-26T03:17:45;8.30;;;5.80;;
34136;SDS011;20414;50.860;4.382;2023-01-26T03:26:54;8.32;;;5.82;;
34136;SDS011;20414;50.860;4.382;2023-01-26T03:29:49;9.18;;;6.05;;
34136;SDS011;20414;50.860;4.382;2023-01-26T03:32:15;8.73;;;6.00;;
34136;SDS011;20414;50.860;4.382;2023-01-26T03:34:41;8.95;;;6.00;;
34136;SDS011;20414;50.860;4.382;2023-01-26T03:37:06;9.50;;;6.40;;
34136;SDS011;20414;50.860;4.382;2023-01-26T03:39:32;8.25;;;5.97;;
34136;SDS011;20414;50.860;4.382;2023-01-26T03:42:17;8.85;;;6.07;;
34136;SDS011;20414;50.860;4.382;2023-01-26T03:45:04;8.82;;;5.88;;
34136;SDS011;20414;50.860;4.382;2023-01-26T03:47:49;9.23;;;5.82;;
34136;SDS011;20414;50.860;4.382;2023-01-26T03:50:33;9.13;;;6.22;;
34136;SDS011;20414;50.860;4.382;2023-01-26T03:53:18;8.70;;;6.07;;
34136;SDS011;20414;50.860;4.382;2023-01-26T03:56:04;7.93;;;5.47;;
34136;SDS011;20414;50.860;4.382;2023-01-26T04:01:23;10.55;;;6.47;;
34136;SDS011;20414;50.860;4.382;2023-01-26T04:03:53;9.15;;;5.70;;
34136;SDS011;20414;50.860;4.382;2023-01-26T04:06:40;8.55;;;6.07;;
34136;SDS011;20414;50.860;4.382;2023-01-26T04:09:26;7.82;;;5.63;;
34136;SDS011;20414;50.860;4.382;2023-01-26T04:11:52;9.30;;;5.97;;
34136;SDS011;20414;50.860;4.382;2023-01-26T04:14:18;8.82;;;5.95;;
34136;SDS011;20414;50.860;4.382;2023-01-26T04:17:03;8.23;;;6.05;;
34136;SDS011;20414;50.860;4.382;2023-01-26T04:19:47;8.70;;;5.93;;
34136;SDS011;20414;50.860;4.382;2023-01-26T04:22:38;8.05;;;5.60;;
34136;SDS011;20414;50.860;4.382;2023-01-26T04:25:11;8.63;;;5.95;;
34136;SDS011;20414;50.860;4.382;2023-01-26T04:27:39;9.55;;;6.05;;
34136;SDS011;20414;50.860;4.382;2023-01-26T04:30:05;9.75;;;6.03;;
34136;SDS011;20414;50.860;4.382;2023-01-26T04:32:32;7.28;;;5.63;;
34136;SDS011;20414;50.860;4.382;2023-01-26T04:34:58;9.10;;;6.22;;
34136;SDS011;20414;50.860;4.382;2023-01-26T04:37:24;8.05;;;5.90;;
34136;SDS011;20414;50.860;4.382;2023-01-26T04:39:50;7.32;;;5.40;;
34136;SDS011;20414;50.860;4.382;2023-01-26T04:42:15;8.75;;;5.93;;
34136;SDS011;20414;50.860;4.382;2023-01-26T04:44:41;8.45;;;5.75;;
34136;SDS011;20414;50.860;4.382;2023-01-26T04:47:06;8.55;;;6.03;;
34136;SDS011;20414;50.860;4.382;2023-01-26T04:49:32;8.02;;;5.60;;
34136;SDS011;20414;50.860;4.382;2023-01-26T04:51:58;8.13;;;5.82;;
34136;SDS011;20414;50.860;4.382;2023-01-26T04:54:23;8.27;;;5.82;;
34136;SDS011;20414;50.860;4.382;2023-01-26T04:56:49;7.80;;;5.80;;
34136;SDS011;20414;50.860;4.382;2023-01-26T04:59:15;9.98;;;6.05;;
34136;SDS011;20414;50.860;4.382;2023-01-26T05:01:41;8.45;;;5.70;;
34136;SDS011;20414;50.860;4.382;2023-01-26T05:04:07;8.68;;;5.70;;
34136;SDS011;20414;50.860;4.382;2023-01-26T05:06:35;7.22;;;5.53;;
34136;SDS011;20414;50.860;4.382;2023-01-26T05:09:03;7.63;;;5.40;;
34136;SDS011;20414;50.860;4.382;2023-01-26T05:11:29;8.02;;;5.60;;
34136;SDS011;20414;50.860;4.382;2023-01-26T05:13:55;8.95;;;6.13;;
34136;SDS011;20414;50.860;4.382;2023-01-26T05:16:21;8.43;;;5.55;;
34136;SDS011;20414;50.860;4.382;2023-01-26T05:18:46;9.38;;;5.63;;
34136;SDS011;20414;50.860;4.382;2023-01-26T05:21:12;8.38;;;5.82;;
34136;SDS011;20414;50.860;4.382;2023-01-26T05:23:38;9.70;;;5.90;;
34136;SDS011;20414;50.860;4.382;2023-01-26T05:26:04;7.90;;;5.47;;
34136;SDS011;20414;50.860;4.382;2023-01-26T05:28:30;8.60;;;5.97;;
34136;SDS011;20414;50.860;4.382;2023-01-26T05:30:56;7.18;;;5.35;;
34136;SDS011;20414;50.860;4.382;2023-01-26T05:33:21;7.82;;;5.50;;
34136;SDS011;20414;50.860;4.382;2023-01-26T05:35:50;7.55;;;5.50;;
34136;SDS011;20414;50.860;4.382;2023-01-26T05:38:18;8.25;;;5.55;;
34136;SDS011;20414;50.860;4.382;2023-01-26T05:40:44;7.10;;;5.32;;
34136;SDS011;20414;50.860;4.382;2023-01-26T05:43:10;6.95;;;5.00;;
34136;SDS011;20414;50.860;4.382;2023-01-26T05:45:37;8.55;;;5.80;;
34136;SDS011;20414;50.860;4.382;2023-01-26T05:48:03;7.72;;;5.30;;
34136;SDS011;20414;50.860;4.382;2023-01-26T05:50:29;8.20;;;5.63;;
34136;SDS011;20414;50.860;4.382;2023-01-26T05:52:54;6.80;;;5.18;;
34136;SDS011;20414;50.860;4.382;2023-01-26T05:55:21;7.07;;;5.18;;
34136;SDS011;20414;50.860;4.382;2023-01-26T05:57:46;8.38;;;5.55;;
34136;SDS011;20414;50.860;4.382;2023-01-26T06:00:12;6.65;;;4.90;;
34136;SDS011;20414;50.860;4.382;2023-01-26T06:02:39;7.90;;;5.43;;
34136;SDS011;20414;50.860;4.382;2023-01-26T06:05:05;7.47;;;5.45;;
34136;SDS011;20414;50.860;4.382;2023-01-26T06:07:32;7.80;;;5.32;;
34136;SDS011;20414;50.860;4.382;2023-01-26T06:09:57;6.68;;;4.90;;
34136;SDS011;20414;50.860;4.382;2023-01-26T06:12:23;7.38;;;5.10;;
34136;SDS011;20414;50.860;4.382;2023-01-26T06:14:49;7.20;;;5.10;;
34136;SDS011;20414;50.860;4.382;2023-01-26T06:17:15;7.03;;;4.88;;
34136;SDS011;20414;50.860;4.382;2023-01-26T06:19:41;7.88;;;5.25;;
34136;SDS011;20414;50.860;4.382;2023-01-26T06:22:08;7.53;;;5.20;;
34136;SDS011;20414;50.860;4.382;2023-01-26T06:24:35;7.55;;;5.50;;
34136;SDS011;20414;50.860;4.382;2023-01-26T06:27:01;6.93;;;5.20;;
34136;SDS011;20414;50.860;4.382;2023-01-26T06:29:27;8.13;;;5.50;;
34136;SDS011;20414;50.860;4.382;2023-01-26T06:31:53;7.03;;;4.70;;
34136;SDS011;20414;50.860;4.382;2023-01-26T06:34:19;7.22;;;5.28;;
34136;SDS011;20414;50.860;4.382;2023-01-26T06:36:45;8.35;;;5.45;;
34136;SDS011;20414;50.860;4.382;2023-01-26T06:39:11;7.10;;;5.22;;
34136;SDS011;20414;50.860;4.382;2023-01-26T06:41:37;6.53;;;4.70;;
34136;SDS011;20414;50.860;4.382;2023-01-26T06:44:03;7.80;;;5.25;;
34136;SDS011;20414;50.860;4.382;2023-01-26T06:46:29;7.03;;;4.93;;
34136;SDS011;20414;50.860;4.382;2023-01-26T06:48:55;7.85;;;5.40;;
34136;SDS011;20414;50.860;4.382;2023-01-26T06:56:18;7.85;;;5.05;;
34136;SDS011;20414;50.860;4.382;2023-01-26T06:58:45;6.45;;;4.88;;
34136;SDS011;20414;50.860;4.382;2023-01-26T07:01:13;6.90;;;4.90;;
34136;SDS011;20414;50.860;4.382;2023-01-26T07:03:42;6.45;;;4.82;;
34136;SDS011;20414;50.860;4.382;2023-01-26T07:06:08;7.25;;;5.15;;
34136;SDS011;20414;50.860;4.382;2023-01-26T07:08:36;7.43;;;4.90;;
34136;SDS011;20414;50.860;4.382;2023-01-26T07:11:03;6.75;;;4.88;;
34136;SDS011;20414;50.860;4.382;2023-01-26T07:13:29;5.97;;;4.75;;
34136;SDS011;20414;50.860;4.382;2023-01-26T07:16:01;7.05;;;4.78;;
34136;SDS011;20414;50.860;4.382;2023-01-26T07:18:29;7.55;;;5.15;;
34136;SDS011;20414;50.860;4.382;2023-01-26T07:21:00;6.30;;;4.65;;
34136;SDS011;20414;50.860;4.382;2023-01-26T07:23:31;7.43;;;4.78;;
34136;SDS011;20414;50.860;4.382;2023-01-26T07:25:57;6.22;;;4.75;;
34136;SDS011;20414;50.860;4.382;2023-01-26T07:28:24;6.85;;;4.63;;
34136;SDS011;20414;50.860;4.382;2023-01-26T07:30:50;6.43;;;4.50;;
34136;SDS011;20414;50.860;4.382;2023-01-26T07:33:17;5.72;;;4.47;;
34136;SDS011;20414;50.860;4.382;2023-01-26T07:35:43;5.93;;;4.45;;
34136;SDS011;20414;50.860;4.382;2023-01-26T07:38:09;6.22;;;4.78;;
34136;SDS011;20414;50.860;4.382;2023-01-26T07:40:35;5.97;;;4.28;;
34136;SDS011;20414;50.860;4.382;2023-01-26T07:43:00;5.15;;;4.03;;
34136;SDS011;20414;50.860;4.382;2023-01-26T07:45:26;6.18;;;4.68;;
34136;SDS011;20414;50.860;4.382;2023-01-26T07:47:55;6.38;;;4.70;;
34136;SDS011;20414;50.860;4.382;2023-01-26T07:50:22;6.43;;;4.73;;
34136;SDS011;20414;50.860;4.382;2023-01-26T07:52:49;6.55;;;4.88;;
34136;SDS011;20414;50.860;4.382;2023-01-26T07:55:17;5.72;;;4.32;;
34136;SDS011;20414;50.860;4.382;2023-01-26T07:57:50;6.10;;;4.25;;
34136;SDS011;20414;50.860;4.382;2023-01-26T08:00:16;5.53;;;4.15;;
34136;SDS011;20414;50.860;4.382;2023-01-26T08:02:43;6.00;;;4.30;;
34136;SDS011;20414;50.860;4.382;2023-01-26T08:05:13;5.75;;;4.25;;
34136;SDS011;20414;50.860;4.382;2023-01-26T08:07:41;6.25;;;4.53;;
34136;SDS011;20414;50.860;4.382;2023-01-26T08:10:07;5.72;;;4.35;;
34136;SDS011;20414;50.860;4.382;2023-01-26T08:12:34;5.53;;;4.25;;
34136;SDS011;20414;50.860;4.382;2023-01-26T08:15:00;4.93;;;4.03;;
34136;SDS011;20414;50.860;4.382;2023-01-26T08:17:27;6.25;;;4.40;;
34136;SDS011;20414;50.860;4.382;2023-01-26T08:19:53;5.63;;;4.07;;
34136;SDS011;20414;50.860;4.382;2023-01-26T08:22:19;5.75;;;4.20;;
34136;SDS011;20414;50.860;4.382;2023-01-26T08:24:45;5.13;;;3.92;;
34136;SDS011;20414;50.860;4.382;2023-01-26T08:27:10;6.57;;;4.45;;
34136;SDS011;20414;50.860;4.382;2023-01-26T08:29:36;5.72;;;4.18;;
34136;SDS011;20414;50.860;4.382;2023-01-26T08:32:02;5.05;;;4.00;;
34136;SDS011;20414;50.860;4.382;2023-01-26T08:34:28;5.78;;;4.05;;
34136;SDS011;20414;50.860;4.382;2023-01-26T08:36:53;5.50;;;3.97;;
34136;SDS011;20414;50.860;4.382;2023-01-26T08:39:19;5.50;;;4.30;;
34136;SDS011;20414;50.860;4.382;2023-01-26T08:41:45;5.18;;;3.85;;
34136;SDS011;20414;50.860;4.382;2023-01-26T08:44:11;4.93;;;3.50;;
34136;SDS011;20414;50.860;4.382;2023-01-26T08:46:37;5.05;;;3.95;;
34136;SDS011;20414;50.860;4.382;2023-01-26T08:49:02;5.43;;;3.97;;
34136;SDS011;20414;50.860;4.382;2023-01-26T08:51:28;5.32;;;3.70;;
34136;SDS011;20414;50.860;4.382;2023-01-26T08:53:54;5.60;;;3.97;;
34136;SDS011;20414;50.860;4.382;2023-01-26T08:56:20;5.57;;;4.20;;
34136;SDS011;20414;50.860;4.382;2023-01-26T08:58:46;4.93;;;3.55;;
34136;SDS011;20414;50.860;4.382;2023-01-26T09:01:12;5.20;;;3.88;;
34136;SDS011;20414;50.860;4.382;2023-01-26T09:03:39;4.93;;;4.00;;
34136;SDS011;20414;50.860;4.382;2023-01-26T09:06:06;5.18;;;4.00;;
34136;SDS011;20414;50.860;4.382;2023-01-26T09:08:33;4.78;;;3.50;;
34136;SDS011;20414;50.860;4.382;2023-01-26T09:10:59;4.22;;;3.50;;
34136;SDS011;20414;50.860;4.382;2023-01-26T09:13:25;5.05;;;3.83;;
34136;SDS011;20414;50.860;4.382;2023-01-26T09:15:51;4.53;;;3.47;;
34136;SDS011;20414;50.860;4.382;2023-01-26T09:18:17;4.05;;;3.50;;
34136;SDS011;20414;50.860;4.382;2023-01-26T09:20:43;4.85;;;3.80;;
34136;SDS011;20414;50.860;4.382;2023-01-26T09:23:09;5.13;;;3.70;;
34136;SDS011;20414;50.860;4.382;2023-01-26T09:25:36;3.80;;;3.25;;
34136;SDS011;20414;50.860;4.382;2023-01-26T09:28:03;4.30;;;3.35;;
34136;SDS011;20414;50.860;4.382;2023-01-26T09:30:29;4.47;;;3.13;;
34136;SDS011;20414;50.860;4.382;2023-01-26T09:32:58;5.25;;;3.72;;
34136;SDS011;20414;50.860;4.382;2023-01-26T09:35:25;5.20;;;4.07;;
34136;SDS011;20414;50.860;4.382;2023-01-26T09:37:51;4.75;;;3.17;;
34136;SDS011;20414;50.860;4.382;2023-01-26T09:40:18;4.35;;;3.35;;
34136;SDS011;20414;50.860;4.382;2023-01-26T09:53:53;4.43;;;3.60;;
34136;SDS011;20414;50.860;4.382;2023-01-26T09:56:24;4.30;;;3.20;;
34136;SDS011;20414;50.860;4.382;2023-01-26T09:59:10;4.68;;;3.20;;
34136;SDS011;20414;50.860;4.382;2023-01-26T10:04:41;4.00;;;2.90;;
34136;SDS011;20414;50.860;4.382;2023-01-26T10:07:11;3.85;;;2.97;;
34136;SDS011;20414;50.860;4.382;2023-01-26T10:09:39;4.43;;;3.17;;
34136;SDS011;20414;50.860;4.382;2023-01-26T10:12:15;4.05;;;3.10;;
34136;SDS011;20414;50.860;4.382;2023-01-26T10:17:48;4.07;;;3.05;;
34136;SDS011;20414;50.860;4.382;2023-01-26T10:20:22;4.20;;;3.30;;
34136;SDS011;20414;50.860;4.382;2023-01-26T10:23:00;3.35;;;2.80;;
34136;SDS011;20414;50.860;4.382;2023-01-26T10:27:59;4.00;;;3.17;;
34136;SDS011;20414;50.860;4.382;2023-01-26T10:30:47;3.40;;;2.85;;
34136;SDS011;20414;50.860;4.382;2023-01-26T10:36:00;4.13;;;3.20;;
34136;SDS011;20414;50.860;4.382;2023-01-26T10:38:37;3.85;;;3.08;;
34136;SDS011;20414;50.860;4.382;2023-01-26T10:41:05;4.32;;;3.22;;
34136;SDS011;20414;50.860;4.382;2023-01-26T10:43:41;3.50;;;2.70;;
34136;SDS011;20414;50.860;4.382;2023-01-26T10:47:00;3.55;;;2.80;;
34136;SDS011;20414;50.860;4.382;2023-01-26T10:51:33;3.65;;;2.92;;
34136;SDS011;20414;50.860;4.382;2023-01-26T10:56:47;3.35;;;2.85;;
34136;SDS011;20414;50.860;4.382;2023-01-26T10:59:42;3.53;;;2.80;;
34136;SDS011;20414;50.860;4.382;2023-01-26T11:04:38;2.90;;;2.50;;
34136;SDS011;20414;50.860;4.382;2023-01-26T11:07:22;3.53;;;2.85;;
34136;SDS011;20414;50.860;4.382;2023-01-26T11:09:53;3.17;;;2.65;;
34136;SDS011;20414;50.860;4.382;2023-01-26T11:12:20;3.30;;;2.70;;
34136;SDS011;20414;50.860;4.382;2023-01-26T11:14:59;3.60;;;2.75;;
34136;SDS011;20414;50.860;4.382;2023-01-26T11:17:39;3.73;;;3.10;;
34136;SDS011;20414;50.860;4.382;2023-01-26T11:25:47;3.03;;;2.40;;
34136;SDS011;20414;50.860;4.382;2023-01-26T11:36:34;3.50;;;2.90;;
34136;SDS011;20414;50.860;4.382;2023-01-26T11:39:33;3.38;;;2.55;;
34136;SDS011;20414;50.860;4.382;2023-01-26T11:42:47;3.55;;;2.80;;
34136;SDS011;20414;50.860;4.382;2023-01-26T11:45:27;3.10;;;2.55;;
34136;SDS011;20414;50.860;4.382;2023-01-26T11:48:13;3.15;;;2.38;;
34136;SDS011;20414;50.860;4.382;2023-01-26T11:51:04;3.25;;;2.67;;
34136;SDS011;20414;50.860;4.382;2023-01-26T11:59:02;2.70;;;2.35;;
34136;SDS011;20414;50.860;4.382;2023-01-26T12:04:38;2.72;;;2.38;;
34136;SDS011;20414;50.860;4.382;2023-01-26T12:07:22;3.42;;;2.80;;
34136;SDS011;20414;50.860;4.382;2023-01-26T12:09:54;3.40;;;2.72;;
34136;SDS011;20414;50.860;4.382;2023-01-26T12:15:16;3.13;;;2.60;;
34136;SDS011;20414;50.860;4.382;2023-01-26T12:20:45;3.60;;;2.60;;
34136;SDS011;20414;50.860;4.382;2023-01-26T12:26:17;3.00;;;2.40;;
34136;SDS011;20414;50.860;4.382;2023-01-26T12:33:41;3.35;;;2.75;;
34136;SDS011;20414;50.860;4.382;2023-01-26T12:36:25;2.10;;;1.90;;
34136;SDS011;20414;50.860;4.382;2023-01-26T12:49:44;2.95;;;2.65;;
34136;SDS011;20414;50.860;4.382;2023-01-26T12:52:27;2.65;;;2.13;;
34136;SDS011;20414;50.860;4.382;2023-01-26T12:55:06;3.38;;;2.70;;
34136;SDS011;20414;50.860;4.382;2023-01-26T12:57:39;2.65;;;2.08;;
34136;SDS011;20414;50.860;4.382;2023-01-26T13:00:16;2.58;;;2.17;;
34136;SDS011;20414;50.860;4.382;2023-01-26T13:02:47;2.88;;;2.40;;
34136;SDS011;20414;50.860;4.382;2023-01-26T13:05:27;2.88;;;2.33;;
34136;SDS011;20414;50.860;4.382;2023-01-26T13:08:03;2.88;;;2.40;;
34136;SDS011;20414;50.860;4.382;2023-01-26T13:10:56;2.40;;;2.13;;
34136;SDS011;20414;50.860;4.382;2023-01-26T13:18:50;2.60;;;2.40;;
34136;SDS011;20414;50.860;4.382;2023-01-26T13:24:10;3.10;;;2.08;;
34136;SDS011;20414;50.860;4.382;2023-01-26T13:26:51;2.55;;;2.30;;
34136;SDS011;20414;50.860;4.382;2023-01-26T13:31:53;2.25;;;2.03;;
34136;SDS011;20414;50.860;4.382;2023-01-26T13:34:23;2.20;;;2.00;;
34136;SDS011;20414;50.860;4.382;2023-01-26T13:40:00;4.40;;;2.15;;
34136;SDS011;20414;50.860;4.382;2023-01-26T13:43:21;2.92;;;2.28;;
34136;SDS011;20414;50.860;4.382;2023-01-26T13:45:52;2.58;;;2.20;;
34136;SDS011;20414;50.860;4.382;2023-01-26T13:48:30;2.75;;;2.08;;
34136;SDS011;20414;50.860;4.382;2023-01-26T13:51:02;2.83;;;2.20;;
34136;SDS011;20414;50.860;4.382;2023-01-26T13:55:59;3.03;;;1.95;;
34136;SDS011;20414;50.860;4.382;2023-01-26T13:58:28;2.58;;;2.08;;
34136;SDS011;20414;50.860;4.382;2023-01-26T14:01:12;3.20;;;2.38;;
34136;SDS011;20414;50.860;4.382;2023-01-26T14:03:39;2.30;;;1.90;;
34136;SDS011;20414;50.860;4.382;2023-01-26T14:06:06;2.30;;;2.05;;
34136;SDS011;20414;50.860;4.382;2023-01-26T14:08:35;3.75;;;2.25;;
34136;SDS011;20414;50.860;4.382;2023-01-26T14:11:04;3.13;;;2.40;;
34136;SDS011;20414;50.860;4.382;2023-01-26T14:13:40;3.60;;;2.10;;
34136;SDS011;20414;50.860;4.382;2023-01-26T14:16:06;2.75;;;2.05;;
34136;SDS011;20414;50.860;4.382;2023-01-26T14:18:32;2.30;;;2.08;;
34136;SDS011;20414;50.860;4.382;2023-01-26T14:20:59;3.03;;;2.28;;
34136;SDS011;20414;50.860;4.382;2023-01-26T14:23:32;3.25;;;2.15;;
34136;SDS011;20414;50.860;4.382;2023-01-26T14:26:03;2.10;;;1.80;;
34136;SDS011;20414;50.860;4.382;2023-01-26T14:28:36;2.50;;;2.03;;
34136;SDS011;20414;50.860;4.382;2023-01-26T14:31:09;3.25;;;1.80;;
34136;SDS011;20414;50.860;4.382;2023-01-26T14:33:40;2.42;;;2.10;;
34136;SDS011;20414;50.860;4.382;2023-01-26T14:36:11;2.38;;;1.75;;
34136;SDS011;20414;50.860;4.382;2023-01-26T14:38:40;2.63;;;1.95;;
34136;SDS011;20414;50.860;4.382;2023-01-26T14:41:10;2.50;;;1.90;;
34136;SDS011;20414;50.860;4.382;2023-01-26T14:43:42;2.33;;;2.00;;
34136;SDS011;20414;50.860;4.382;2023-01-26T14:46:09;3.20;;;1.70;;
34136;SDS011;20414;50.860;4.382;2023-01-26T14:48:42;2.55;;;1.85;;
34136;SDS011;20414;50.860;4.382;2023-01-26T14:51:19;4.38;;;2.47;;
34136;SDS011;20414;50.860;4.382;2023-01-26T14:53:56;2.85;;;1.75;;
34136;SDS011;20414;50.860;4.382;2023-01-26T14:59:03;2.67;;;2.08;;
34136;SDS011;20414;50.860;4.382;2023-01-26T15:01:30;2.33;;;1.80;;
34136;SDS011;20414;50.860;4.382;2023-01-26T15:03:57;2.22;;;1.80;;
34136;SDS011;20414;50.860;4.382;2023-01-26T15:06:26;2.95;;;2.00;;
34136;SDS011;20414;50.860;4.382;2023-01-26T15:09:03;3.20;;;1.80;;
34136;SDS011;20414;50.860;4.382;2023-01-26T15:11:40;3.03;;;2.08;;
34136;SDS011;20414;50.860;4.382;2023-01-26T15:14:35;2.15;;;1.77;;
34136;SDS011;20414;50.860;4.382;2023-01-26T15:17:39;2.70;;;1.73;;
34136;SDS011;20414;50.860;4.382;2023-01-26T15:22:48;3.35;;;2.00;;
34136;SDS011;20414;50.860;4.382;2023-01-26T15:25:21;3.27;;;1.97;;
34136;SDS011;20414;50.860;4.382;2023-01-26T15:27:52;2.67;;;1.80;;
34136;SDS011;20414;50.860;4.382;2023-01-26T15:32:53;2.75;;;1.90;;
34136;SDS011;20414;50.860;4.382;2023-01-26T15:35:20;3.97;;;1.80;;
34136;SDS011;20414;50.860;4.382;2023-01-26T15:37:46;5.03;;;1.90;;
34136;SDS011;20414;50.860;4.382;2023-01-26T15:40:12;1.83;;;1.60;;
34136;SDS011;20414;50.860;4.382;2023-01-26T15:42:38;2.17;;;1.60;;
34136;SDS011;20414;50.860;4.382;2023-01-26T15:45:11;2.13;;;1.90;;
34136;SDS011;20414;50.860;4.382;2023-01-26T15:47:47;2.00;;;1.67;;
34136;SDS011;20414;50.860;4.382;2023-01-26T15:50:12;1.90;;;1.70;;
34136;SDS011;20414;50.860;4.382;2023-01-26T15:52:39;2.60;;;1.80;;
34136;SDS011;20414;50.860;4.382;2023-01-26T15:55:15;2.00;;;1.75;;
34136;SDS011;20414;50.860;4.382;2023-01-26T15:57:48;2.78;;;1.83;;
34136;SDS011;20414;50.860;4.382;2023-01-26T16:00:14;2.10;;;1.67;;
34136;SDS011;20414;50.860;4.382;2023-01-26T16:02:41;2.70;;;1.80;;
34136;SDS011;20414;50.860;4.382;2023-01-26T16:05:14;2.45;;;1.63;;
34136;SDS011;20414;50.860;4.382;2023-01-26T16:07:44;2.08;;;1.50;;
34136;SDS011;20414;50.860;4.382;2023-01-26T16:10:10;1.70;;;1.42;;
34136;SDS011;20414;50.860;4.382;2023-01-26T16:12:36;2.65;;;1.92;;
34136;SDS011;20414;50.860;4.382;2023-01-26T16:15:02;2.45;;;1.75;;
34136;SDS011;20414;50.860;4.382;2023-01-26T16:17:59;2.28;;;1.48;;
34136;SDS011;20414;50.860;4.382;2023-01-26T16:20:24;2.15;;;1.65;;
34136;SDS011;20414;50.860;4.382;2023-01-26T16:22:50;1.90;;;1.55;;
34136;SDS011;20414;50.860;4.382;2023-01-26T16:27:50;1.95;;;1.60;;
34136;SDS011;20414;50.860;4.382;2023-01-26T16:30:16;2.35;;;1.70;;
34136;SDS011;20414;50.860;4.382;2023-01-26T16:32:42;2.50;;;1.73;;
34136;SDS011;20414;50.860;4.382;2023-01-26T16:35:12;1.92;;;1.60;;
34136;SDS011;20414;50.860;4.382;2023-01-26T16:37:42;1.92;;;1.60;;
34136;SDS011;20414;50.860;4.382;2023-01-26T16:40:10;2.08;;;1.65;;
34136;SDS011;20414;50.860;4.382;2023-01-26T16:42:38;2.33;;;1.67;;
34136;SDS011;20414;50.860;4.382;2023-01-26T16:45:14;2.20;;;1.60;;
34136;SDS011;20414;50.860;4.382;2023-01-26T16:47:42;2.63;;;1.75;;
34136;SDS011;20414;50.860;4.382;2023-01-26T16:50:08;2.53;;;1.60;;
34136;SDS011;20414;50.860;4.382;2023-01-26T16:52:34;2.28;;;1.58;;
34136;SDS011;20414;50.860;4.382;2023-01-26T16:55:00;2.33;;;1.50;;
34136;SDS011;20414;50.860;4.382;2023-01-26T16:57:25;2.03;;;1.38;;
34136;SDS011;20414;50.860;4.382;2023-01-26T16:59:51;1.85;;;1.60;;
34136;SDS011;20414;50.860;4.382;2023-01-26T17:02:20;2.33;;;1.55;;
34136;SDS011;20414;50.860;4.382;2023-01-26T17:04:48;1.60;;;1.33;;
34136;SDS011;20414;50.860;4.382;2023-01-26T17:07:14;2.13;;;1.50;;
34136;SDS011;20414;50.860;4.382;2023-01-26T17:09:40;1.52;;;1.38;;
34136;SDS011;20414;50.860;4.382;2023-01-26T17:12:06;2.03;;;1.50;;